Time;durP1;ratioP1;P1;durP2;ratioP2;P2;SDS_P1;SDS_P2;PMS_P1;PMS_P2;Temp;Humidity;BMP_temperature;BMP_pressure;BME280_temperature;BME280_humidity;BME280_pressure;Samples;Min_cycle;Max_cycle;Signal;HPM_P1;HPM_P2
2022/02/13 00:00:21;;;;;;;12.98;6.50;;;0.00;99.90;;;;;;5070632;27;20086;-60
2022/02/13 00:03:05;;;;;;;16.50;5.97;;;0.00;99.90;;;;;;5082573;28;20038;-62
2022/02/13 00:05:49;;;;;;;10.50;5.28;;;0.10;99.90;;;;;;5075810;28;20081;-60
2022/02/13 00:08:33;;;;;;;16.08;4.80;;;0.00;99.90;;;;;;5079262;28;20058;-63
2022/02/13 00:11:17;;;;;;;15.95;5.03;;;0.00;99.90;;;;;;5068348;28;20111;-63
2022/02/13 00:14:02;;;;;;;12.75;5.43;;;0.00;99.90;;;;;;5080516;28;20027;-63
2022/02/13 00:16:46;;;;;;;12.02;5.00;;;-0.10;99.90;;;;;;5074878;28;20518;-62
2022/02/13 00:19:30;;;;;;;11.93;4.97;;;-0.10;99.90;;;;;;5064927;28;20656;-63
2022/02/13 00:22:15;;;;;;;10.52;4.95;;;-0.10;99.90;;;;;;5065849;28;20036;-63
2022/02/13 00:25:00;;;;;;;11.05;4.43;;;-0.20;99.90;;;;;;5066352;28;20891;-62
2022/02/13 00:27:48;;;;;;;8.60;4.63;;;-0.20;99.90;;;;;;5095552;28;20039;-63
2022/02/13 00:30:32;;;;;;;10.07;4.70;;;-0.20;99.90;;;;;;5061642;28;20040;-63
2022/02/13 00:33:16;;;;;;;8.82;4.35;;;-0.10;99.90;;;;;;5061008;28;20630;-63
2022/02/13 00:36:01;;;;;;;9.52;4.13;;;-0.10;99.90;;;;;;5064106;28;20035;-62
2022/02/13 00:38:47;;;;;;;14.65;4.45;;;-0.10;99.90;;;;;;5067308;28;20647;-61
2022/02/13 00:41:31;;;;;;;12.02;4.80;;;-0.20;99.90;;;;;;5064792;28;20043;-61
2022/02/13 00:44:15;;;;;;;12.43;4.25;;;-0.10;99.90;;;;;;5067426;28;20090;-63
2022/02/13 00:46:59;;;;;;;8.65;4.22;;;-0.20;99.90;;;;;;5061760;28;20475;-63
2022/02/13 00:49:44;;;;;;;15.32;4.43;;;-0.20;99.90;;;;;;5067481;28;20617;-63
2022/02/13 00:52:29;;;;;;;11.50;4.45;;;-0.30;99.90;;;;;;5065342;28;20112;-62
2022/02/13 00:55:13;;;;;;;11.98;3.90;;;-0.40;99.90;;;;;;5057404;28;20066;-62
2022/02/13 00:57:58;;;;;;;8.98;4.10;;;-0.40;99.90;;;;;;5061498;28;20159;-62
2022/02/13 01:00:42;;;;;;;11.32;4.50;;;-0.40;99.90;;;;;;5065064;28;21082;-62
2022/02/13 01:03:26;;;;;;;12.82;4.30;;;-0.40;99.90;;;;;;5066704;28;20561;-62
2022/02/13 01:06:11;;;;;;;7.60;4.35;;;-0.40;99.90;;;;;;5057834;28;20040;-62
2022/02/13 01:08:56;;;;;;;9.40;5.13;;;-0.50;99.90;;;;;;5066141;28;20407;-62
2022/02/13 01:11:40;;;;;;;9.90;4.03;;;-0.50;99.90;;;;;;5059059;28;20129;-62
2022/02/13 01:14:24;;;;;;;8.63;3.58;;;-0.40;99.90;;;;;;5062181;28;20141;-61
2022/02/13 01:17:08;;;;;;;11.20;3.80;;;-0.50;99.90;;;;;;5064180;28;20083;-61
2022/02/13 01:19:52;;;;;;;18.58;3.78;;;-0.60;99.90;;;;;;5065517;28;20106;-61
2022/02/13 01:22:36;;;;;;;9.88;4.00;;;-0.70;99.90;;;;;;5066274;28;20059;-63
2022/02/13 01:25:21;;;;;;;9.50;3.72;;;-0.70;99.90;;;;;;5063444;28;20086;-62
2022/02/13 01:28:05;;;;;;;9.48;3.95;;;-0.80;99.90;;;;;;5065209;28;20082;-63
2022/02/13 01:30:49;;;;;;;11.18;4.05;;;-0.80;99.90;;;;;;5057433;28;20044;-63
2022/02/13 01:33:34;;;;;;;7.85;4.00;;;-0.80;99.90;;;;;;5061431;28;20063;-60
2022/02/13 01:36:19;;;;;;;9.77;4.50;;;-0.90;99.90;;;;;;5059131;28;20036;-63
2022/02/13 01:39:03;;;;;;;9.30;3.30;;;-1.00;99.90;;;;;;5074074;28;20089;-62
2022/02/13 01:41:49;;;;;;;13.68;5.03;;;-1.10;99.90;;;;;;5064302;28;20094;-61
2022/02/13 01:44:36;;;;;;;11.63;4.40;;;-1.20;99.90;;;;;;5083477;28;20136;-61
2022/02/13 01:47:21;;;;;;;10.32;4.30;;;-1.20;99.90;;;;;;5058687;28;20161;-62
2022/02/13 01:50:08;;;;;;;8.43;3.90;;;-1.10;99.90;;;;;;5070666;28;20056;-62
2022/02/13 01:52:52;;;;;;;10.80;4.65;;;-1.10;99.90;;;;;;5076307;28;20031;-61
2022/02/13 01:55:36;;;;;;;12.73;5.38;;;-1.10;99.90;;;;;;5073718;28;20117;-60
2022/02/13 01:58:21;;;;;;;7.40;4.10;;;-1.00;99.90;;;;;;5060683;28;20051;-61
2022/02/13 02:01:05;;;;;;;7.72;3.40;;;-0.90;99.90;;;;;;5053733;28;20521;-61
2022/02/13 02:03:49;;;;;;;9.77;3.22;;;-0.90;99.90;;;;;;5065000;28;20090;-63
2022/02/13 02:06:34;;;;;;;7.03;3.28;;;-0.90;99.90;;;;;;5059826;28;20082;-61
2022/02/13 02:09:17;;;;;;;12.85;3.97;;;-1.00;99.90;;;;;;5066059;28;20044;-61
2022/02/13 02:12:03;;;;;;;15.45;4.43;;;-1.00;99.90;;;;;;5056941;28;20115;-58
2022/02/13 02:14:48;;;;;;;10.70;3.50;;;-1.10;99.90;;;;;;5065340;28;20709;-58
2022/02/13 02:17:33;;;;;;;6.88;3.33;;;-1.10;99.90;;;;;;5059652;28;20514;-60
2022/02/13 02:20:18;;;;;;;10.23;4.30;;;-1.10;99.90;;;;;;5056374;28;20535;-61
2022/02/13 02:23:03;;;;;;;9.63;3.65;;;-1.20;99.90;;;;;;5065771;28;20094;-58
2022/02/13 02:25:47;;;;;;;10.98;3.65;;;-1.20;99.90;;;;;;5064433;28;20043;-62
2022/02/13 02:28:31;;;;;;;17.52;4.35;;;-1.10;99.90;;;;;;5065293;28;20515;-61
2022/02/13 02:31:16;;;;;;;10.07;3.88;;;-1.00;99.90;;;;;;5049900;28;20081;-60
2022/02/13 02:34:00;;;;;;;11.00;4.05;;;-1.00;99.90;;;;;;5065840;28;20452;-60
2022/02/13 02:36:45;;;;;;;9.27;3.28;;;-0.90;99.90;;;;;;5058787;28;20123;-62
2022/02/13 02:39:29;;;;;;;11.05;3.75;;;-0.90;99.90;;;;;;5062532;28;20048;-59
2022/02/13 02:42:14;;;;;;;9.98;3.60;;;-1.00;99.90;;;;;;5062775;28;20040;-60
2022/02/13 02:44:57;;;;;;;8.07;3.88;;;-1.00;99.90;;;;;;5064854;28;20177;-62
2022/02/13 02:47:42;;;;;;;10.70;2.90;;;-1.10;99.90;;;;;;5067558;28;20571;-61
2022/02/13 02:50:27;;;;;;;7.93;3.53;;;-1.10;99.90;;;;;;5062133;28;20118;-62
2022/02/13 02:53:11;;;;;;;9.43;3.65;;;-1.20;99.90;;;;;;5063829;28;20416;-61
2022/02/13 02:55:56;;;;;;;10.20;3.47;;;-1.30;99.90;;;;;;5061445;28;20050;-62
2022/02/13 02:58:41;;;;;;;8.65;3.22;;;-1.30;99.90;;;;;;5065977;28;20620;-62
2022/02/13 03:01:25;;;;;;;9.32;3.22;;;-1.10;99.90;;;;;;5061287;28;20830;-62
2022/02/13 03:04:09;;;;;;;7.50;3.17;;;-1.10;99.90;;;;;;5065054;28;20522;-61
2022/02/13 03:06:53;;;;;;;6.75;2.50;;;-1.20;99.90;;;;;;5060074;28;20048;-62
2022/02/13 03:09:38;;;;;;;6.20;2.90;;;-1.20;99.90;;;;;;5065418;28;20043;-61
2022/02/13 03:12:22;;;;;;;4.32;2.40;;;-1.20;99.90;;;;;;5061546;28;20048;-62
2022/02/13 03:15:07;;;;;;;10.48;3.88;;;-1.20;99.90;;;;;;5065933;28;20027;-61
2022/02/13 03:17:51;;;;;;;7.35;3.15;;;-1.20;99.90;;;;;;5063734;28;20083;-61
2022/02/13 03:20:36;;;;;;;8.90;2.80;;;-1.20;99.90;;;;;;5060606;28;20087;-59
2022/02/13 03:23:20;;;;;;;6.57;2.97;;;-1.10;99.90;;;;;;5058284;28;20035;-62
2022/02/13 03:26:05;;;;;;;8.98;2.75;;;-1.10;99.90;;;;;;5064277;28;20068;-61
2022/02/13 03:28:49;;;;;;;5.30;2.47;;;-1.10;99.90;;;;;;5064575;28;20098;-62
2022/02/13 03:31:33;;;;;;;6.53;2.33;;;-1.00;99.90;;;;;;5056599;28;20043;-60
2022/02/13 03:34:17;;;;;;;5.45;2.38;;;-1.00;99.90;;;;;;5064767;28;20139;-62
2022/02/13 03:37:02;;;;;;;5.28;2.42;;;-1.00;99.90;;;;;;5060251;28;20036;-63
2022/02/13 03:39:46;;;;;;;5.15;2.28;;;-1.00;99.90;;;;;;5065800;28;20055;-60
2022/02/13 03:42:30;;;;;;;4.75;1.85;;;-0.90;99.90;;;;;;5054190;28;20471;-61
2022/02/13 03:45:14;;;;;;;8.43;3.22;;;-0.90;99.90;;;;;;5048724;28;20094;-61
2022/02/13 03:47:59;;;;;;;3.90;2.10;;;-0.90;99.90;;;;;;5063065;28;20094;-61
2022/02/13 03:50:43;;;;;;;6.78;2.47;;;-0.90;99.90;;;;;;5058254;28;20543;-61
2022/02/13 03:53:27;;;;;;;5.70;2.38;;;-0.90;99.90;;;;;;5062021;28;20411;-59
2022/02/13 03:56:13;;;;;;;4.55;1.95;;;-0.90;99.90;;;;;;5056136;28;20122;-61
2022/02/13 03:58:57;;;;;;;5.18;2.33;;;-0.90;99.90;;;;;;5066170;28;20040;-61
2022/02/13 04:01:41;;;;;;;5.63;2.28;;;-1.00;99.90;;;;;;5066368;28;20082;-60
2022/02/13 04:04:25;;;;;;;4.88;1.70;;;-1.10;99.90;;;;;;5063008;28;20102;-61
2022/02/13 04:07:10;;;;;;;3.83;2.08;;;-1.10;99.90;;;;;;5061778;28;20555;-62
2022/02/13 04:09:55;;;;;;;5.03;2.53;;;-1.10;99.90;;;;;;5066150;28;20043;-64
2022/02/13 04:12:40;;;;;;;5.05;1.90;;;-1.10;99.90;;;;;;5063570;28;20035;-63
2022/02/13 04:15:25;;;;;;;2.45;1.42;;;-1.10;99.90;;;;;;5064294;28;20123;-63
2022/02/13 04:18:11;;;;;;;3.65;1.73;;;-1.20;99.90;;;;;;5057105;28;20044;-62
2022/02/13 04:20:56;;;;;;;4.30;2.45;;;-1.20;99.90;;;;;;5054012;28;20538;-62
2022/02/13 04:23:40;;;;;;;5.60;2.60;;;-1.30;99.90;;;;;;5068414;28;20089;-62
2022/02/13 04:26:24;;;;;;;2.95;1.65;;;-1.40;99.90;;;;;;5066926;28;20046;-62
2022/02/13 04:29:08;;;;;;;4.35;1.90;;;-1.40;99.90;;;;;;5068465;28;20087;-62
2022/02/13 04:31:52;;;;;;;6.93;2.03;;;-1.50;99.90;;;;;;5059889;28;20698;-61
2022/02/13 04:34:36;;;;;;;7.55;2.15;;;-1.50;99.90;;;;;;5066564;28;20031;-61
2022/02/13 04:37:22;;;;;;;3.97;1.75;;;-1.50;99.90;;;;;;5064288;28;20081;-62
2022/02/13 04:40:07;;;;;;;6.47;1.63;;;-1.50;99.90;;;;;;5058861;28;20105;-61
2022/02/13 04:42:51;;;;;;;3.85;1.70;;;-1.50;99.90;;;;;;5068058;28;20503;-62
2022/02/13 04:45:36;;;;;;;4.97;1.52;;;-1.60;99.90;;;;;;5065241;28;20105;-62
2022/02/13 04:48:20;;;;;;;3.67;1.77;;;-1.60;99.90;;;;;;5062005;28;20500;-64
2022/02/13 04:51:04;;;;;;;3.40;2.13;;;-1.60;99.90;;;;;;5059757;28;20028;-64
2022/02/13 04:53:48;;;;;;;8.13;2.60;;;-1.60;99.90;;;;;;5064993;28;20086;-62
2022/02/13 04:56:32;;;;;;;4.90;1.90;;;-1.60;99.90;;;;;;5060460;28;20090;-63
2022/02/13 04:59:16;;;;;;;5.63;1.77;;;-1.60;99.90;;;;;;5067559;28;20537;-61
2022/02/13 05:02:01;;;;;;;4.88;2.03;;;-1.70;99.90;;;;;;5060800;28;20531;-61
2022/02/13 05:04:45;;;;;;;3.10;1.83;;;-1.70;99.90;;;;;;5062551;28;20047;-62
2022/02/13 05:07:29;;;;;;;5.97;2.13;;;-1.70;99.90;;;;;;5053102;28;20095;-62
2022/02/13 05:10:14;;;;;;;4.68;2.00;;;-1.70;99.90;;;;;;5057573;28;20116;-62
2022/02/13 05:12:58;;;;;;;6.72;2.20;;;-1.70;99.90;;;;;;5066578;28;20123;-63
2022/02/13 05:15:42;;;;;;;5.30;2.20;;;-1.80;99.90;;;;;;5064953;28;20066;-62
2022/02/13 05:18:26;;;;;;;4.18;2.47;;;-1.70;99.90;;;;;;5061492;28;20040;-61
2022/02/13 05:21:10;;;;;;;5.45;1.80;;;-1.80;99.90;;;;;;5055190;28;20047;-64
2022/02/13 05:23:54;;;;;;;9.93;3.05;;;-1.70;99.90;;;;;;5065421;28;20527;-64
2022/02/13 05:26:38;;;;;;;12.07;3.17;;;-1.70;99.90;;;;;;5062701;28;20170;-62
2022/02/13 05:29:22;;;;;;;7.50;2.92;;;-1.70;99.90;;;;;;5062283;28;20081;-61
2022/02/13 05:32:07;;;;;;;8.52;3.45;;;-1.70;99.90;;;;;;5063289;28;20036;-62
2022/02/13 05:34:51;;;;;;;15.80;3.10;;;-1.70;99.90;;;;;;5063970;28;20047;-62
2022/02/13 05:37:38;;;;;;;6.60;3.20;;;-1.70;99.90;;;;;;5059301;28;20452;-61
2022/02/13 05:40:23;;;;;;;7.53;3.55;;;-1.70;99.90;;;;;;5061512;28;20075;-62
2022/02/13 05:43:07;;;;;;;5.25;2.90;;;-1.70;99.90;;;;;;5065579;28;20090;-62
2022/02/13 05:45:51;;;;;;;6.70;3.10;;;-1.70;99.90;;;;;;5063435;28;20043;-60
2022/02/13 05:48:35;;;;;;;9.23;2.78;;;-1.70;99.90;;;;;;5064301;28;20570;-61
2022/02/13 05:51:20;;;;;;;16.25;4.32;;;-1.80;99.90;;;;;;5051241;28;20111;-61
2022/02/13 05:54:04;;;;;;;5.43;2.10;;;-1.70;99.90;;;;;;5070598;28;20031;-63
2022/02/13 05:56:48;;;;;;;7.90;2.35;;;-1.70;99.90;;;;;;5062993;28;20031;-62
2022/02/13 05:59:32;;;;;;;8.77;2.92;;;-1.70;99.90;;;;;;5061870;28;20119;-61
2022/02/13 06:02:17;;;;;;;5.65;2.53;;;-1.70;99.90;;;;;;5059989;28;20059;-63
2022/02/13 06:05:01;;;;;;;4.50;2.50;;;-1.80;99.90;;;;;;5053679;28;20050;-62
2022/02/13 06:07:45;;;;;;;8.93;2.67;;;-1.70;99.90;;;;;;5055839;28;20113;-61
2022/02/13 06:10:29;;;;;;;7.53;2.40;;;-1.80;99.90;;;;;;5057780;28;20035;-62
2022/02/13 06:13:13;;;;;;;5.88;2.30;;;-1.80;99.90;;;;;;5059631;28;20133;-62
2022/02/13 06:16:01;;;;;;;6.47;2.28;;;-1.70;99.90;;;;;;5057718;28;20572;-62
2022/02/13 06:18:46;;;;;;;9.80;2.92;;;-1.80;99.90;;;;;;5064249;28;20039;-63
2022/02/13 06:21:30;;;;;;;7.55;3.13;;;-1.70;99.90;;;;;;5057359;28;20042;-61
2022/02/13 06:24:15;;;;;;;9.55;3.05;;;-1.80;99.90;;;;;;5063265;28;20039;-61
2022/02/13 06:26:59;;;;;;;6.35;2.75;;;-1.70;99.90;;;;;;5062041;28;20558;-61
2022/02/13 06:29:43;;;;;;;5.85;3.30;;;-1.70;99.90;;;;;;5061230;28;20043;-62
2022/02/13 06:32:27;;;;;;;7.43;3.03;;;-1.60;99.90;;;;;;5058341;28;20044;-64
2022/02/13 06:35:11;;;;;;;7.43;3.15;;;-1.60;99.90;;;;;;5052836;28;20460;-63
2022/02/13 06:37:55;;;;;;;7.80;3.53;;;-1.60;99.90;;;;;;5090218;28;20051;-62
2022/02/13 06:40:40;;;;;;;6.78;3.00;;;-1.60;99.90;;;;;;5057821;28;20122;-60
2022/02/13 06:43:24;;;;;;;11.20;3.78;;;-1.60;99.90;;;;;;5061245;28;20120;-60
2022/02/13 06:46:08;;;;;;;4.45;2.67;;;-1.50;99.90;;;;;;5047391;28;20074;-60
2022/02/13 06:48:53;;;;;;;9.00;3.08;;;-1.50;99.90;;;;;;5071121;28;20522;-61
2022/02/13 06:51:37;;;;;;;12.68;3.67;;;-1.50;99.90;;;;;;5063176;28;20167;-60
2022/02/13 06:54:21;;;;;;;8.52;3.58;;;-1.40;99.90;;;;;;5073875;28;20096;-60
2022/02/13 06:57:05;;;;;;;8.25;2.90;;;-1.30;99.90;;;;;;5064681;28;20035;-61
2022/02/13 06:59:49;;;;;;;8.95;3.47;;;-1.30;99.90;;;;;;5062544;28;20074;-61
2022/02/13 07:02:33;;;;;;;7.88;3.05;;;-1.40;99.90;;;;;;5057914;28;20039;-58
2022/02/13 07:05:19;;;;;;;9.15;3.30;;;-1.40;99.90;;;;;;5057044;28;20040;-61
2022/02/13 07:08:04;;;;;;;;;;;-1.30;99.90;;;;;;5058637;28;20071;-61
2022/02/13 07:10:48;;;;;;;7.32;3.53;;;-1.30;99.90;;;;;;5058767;28;19957;-61
2022/02/13 07:13:33;;;;;;;10.25;3.80;;;-1.30;99.90;;;;;;5065111;28;21260;-62
2022/02/13 07:16:17;;;;;;;11.65;3.58;;;-1.10;99.90;;;;;;5055173;28;20543;-62
2022/02/13 07:19:02;;;;;;;11.95;3.97;;;-1.10;99.90;;;;;;5065739;28;20043;-61
2022/02/13 07:21:46;;;;;;;11.13;4.18;;;-0.90;99.90;;;;;;5052980;28;20044;-62
2022/02/13 07:24:32;;;;;;;9.60;3.58;;;-0.80;99.90;;;;;;5059809;28;20120;-61
2022/02/13 07:27:16;;;;;;;9.80;3.95;;;-0.90;99.90;;;;;;5060043;28;20039;-62
2022/02/13 07:30:01;;;;;;;11.43;4.07;;;-0.90;99.90;;;;;;5040390;28;20086;-61
2022/02/13 07:32:46;;;;;;;11.85;3.97;;;-0.80;99.90;;;;;;5026138;28;20096;-62
2022/02/13 07:35:30;;;;;;;8.25;4.07;;;-0.80;99.90;;;;;;5022902;28;20508;-61
2022/02/13 07:38:14;;;;;;;12.20;3.88;;;-0.80;99.90;;;;;;5023747;28;20074;-63
2022/02/13 07:40:59;;;;;;;8.25;3.63;;;-0.60;99.90;;;;;;5024657;28;20029;-62
2022/02/13 07:43:43;;;;;;;6.80;3.13;;;-0.50;99.90;;;;;;5029849;28;20029;-62
2022/02/13 07:46:27;;;;;;;9.20;3.03;;;-0.20;99.90;;;;;;5025354;28;20060;-61
2022/02/13 07:49:11;;;;;;;5.93;2.90;;;0.10;99.90;;;;;;5053223;28;20033;-63
2022/02/13 07:51:55;;;;;;;5.57;3.08;;;0.40;99.90;;;;;;5024365;28;20091;-60
2022/02/13 07:54:40;;;;;;;7.78;2.78;;;0.40;99.90;;;;;;5024968;28;20068;-61
2022/02/13 07:57:25;;;;;;;8.70;3.53;;;0.50;99.90;;;;;;5025189;28;20095;-62
2022/02/13 08:00:09;;;;;;;5.80;3.08;;;0.70;99.90;;;;;;5016565;28;20035;-63
2022/02/13 08:02:54;;;;;;;8.50;2.72;;;0.90;99.20;;;;;;5047235;28;20495;-60
2022/02/13 08:05:39;;;;;;;8.98;2.65;;;1.20;97.10;;;;;;5040891;28;20562;-60
2022/02/13 08:08:23;;;;;;;5.63;3.03;;;1.60;97.10;;;;;;5038062;28;20128;-61
2022/02/13 08:11:07;;;;;;;5.72;2.72;;;1.80;97.00;;;;;;5036094;28;20043;-61
2022/02/13 08:13:51;;;;;;;5.32;2.65;;;2.00;96.60;;;;;;5047429;28;20116;-62
2022/02/13 08:16:39;;;;;;;5.43;2.17;;;2.00;97.00;;;;;;5045045;28;20599;-61
2022/02/13 08:19:23;;;;;;;5.88;2.72;;;2.10;96.80;;;;;;5047078;28;20138;-62
2022/02/13 08:22:07;;;;;;;4.63;2.55;;;2.10;96.40;;;;;;5039056;28;20974;-61
2022/02/13 08:24:51;;;;;;;7.82;2.30;;;2.10;97.40;;;;;;5040568;28;20086;-64
2022/02/13 08:27:35;;;;;;;4.40;2.38;;;2.20;97.70;;;;;;5048158;28;20075;-62
2022/02/13 08:30:19;;;;;;;4.47;2.65;;;2.20;97.60;;;;;;5040641;28;20156;-62
2022/02/13 08:33:04;;;;;;;6.15;3.38;;;2.20;98.10;;;;;;5043804;28;20082;-61
2022/02/13 08:35:48;;;;;;;6.03;2.88;;;2.30;98.40;;;;;;5043881;28;20044;-62
2022/02/13 08:38:32;;;;;;;6.47;2.60;;;2.30;98.20;;;;;;5042038;28;20043;-61
2022/02/13 08:41:16;;;;;;;4.30;2.42;;;2.40;98.40;;;;;;5043115;28;20063;-62
2022/02/13 08:44:01;;;;;;;4.90;2.60;;;2.50;98.70;;;;;;5045744;28;20111;-62
2022/02/13 08:46:45;;;;;;;7.85;3.53;;;2.50;98.60;;;;;;5044816;28;20044;-61
2022/02/13 08:49:29;;;;;;;5.63;2.70;;;2.50;98.50;;;;;;5044552;28;20493;-59
2022/02/13 08:52:13;;;;;;;5.93;2.80;;;2.70;98.00;;;;;;5044825;28;20064;-61
2022/02/13 08:54:57;;;;;;;4.53;2.13;;;2.80;98.40;;;;;;5045389;28;20027;-61
2022/02/13 08:57:42;;;;;;;6.75;2.40;;;2.90;97.30;;;;;;5044811;28;20047;-63
2022/02/13 09:00:26;;;;;;;5.28;2.50;;;3.00;96.40;;;;;;5044848;28;20416;-61
2022/02/13 09:03:11;;;;;;;4.15;2.20;;;3.10;96.80;;;;;;5047469;28;20036;-60
2022/02/13 09:05:55;;;;;;;7.90;2.50;;;3.20;96.80;;;;;;5043080;28;20060;-61
2022/02/13 09:08:39;;;;;;;7.40;2.22;;;3.30;97.80;;;;;;5042087;28;20389;-62
2022/02/13 09:11:24;;;;;;;5.00;2.70;;;3.40;98.70;;;;;;5042521;28;20487;-62
2022/02/13 09:14:09;;;;;;;4.25;2.25;;;3.50;98.40;;;;;;5046800;28;20035;-62
2022/02/13 09:16:54;;;;;;;6.13;2.22;;;3.70;99.10;;;;;;5044245;28;20513;-62
2022/02/13 09:19:39;;;;;;;10.20;2.90;;;3.80;99.10;;;;;;5046976;28;20068;-61
2022/02/13 09:22:23;;;;;;;6.28;2.60;;;3.90;99.50;;;;;;5045415;28;20094;-62
2022/02/13 09:25:08;;;;;;;6.90;3.30;;;4.10;99.00;;;;;;5045958;28;20071;-62
2022/02/13 09:27:52;;;;;;;8.40;2.67;;;4.20;99.60;;;;;;5045748;28;20089;-62
2022/02/13 09:30:36;;;;;;;4.97;2.58;;;4.30;99.20;;;;;;5038469;28;20036;-62
2022/02/13 09:33:20;;;;;;;5.70;2.35;;;4.40;99.90;;;;;;5042508;28;20075;-63
2022/02/13 09:36:05;;;;;;;5.55;2.55;;;4.50;99.90;;;;;;5038025;28;20079;-61
2022/02/13 09:38:49;;;;;;;8.70;2.55;;;4.60;99.90;;;;;;5040748;28;20063;-61
2022/02/13 09:41:34;;;;;;;5.75;2.20;;;4.60;99.90;;;;;;5041255;28;20471;-62
2022/02/13 09:44:18;;;;;;;4.88;2.40;;;4.70;99.40;;;;;;5047007;28;20159;-62
2022/02/13 09:47:03;;;;;;;6.78;2.25;;;4.80;99.10;;;;;;5043738;28;20067;-60
2022/02/13 09:49:49;;;;;;;11.77;2.10;;;4.90;98.60;;;;;;5046676;28;20093;-62
2022/02/13 09:52:34;;;;;;;6.80;2.90;;;5.00;98.20;;;;;;5044241;28;20051;-63
2022/02/13 09:55:18;;;;;;;6.70;2.28;;;5.10;97.80;;;;;;5037301;28;20091;-62
2022/02/13 09:58:05;;;;;;;5.07;2.35;;;5.10;97.90;;;;;;5044325;28;20101;-62
2022/02/13 10:00:51;;;;;;;9.70;2.60;;;5.20;98.00;;;;;;5043664;28;20087;-62
2022/02/13 10:03:40;;;;;;;4.43;2.10;;;5.30;96.90;;;;;;5045337;28;20102;-62
2022/02/13 10:06:26;;;;;;;5.88;2.38;;;5.40;96.80;;;;;;5058040;28;20728;-62
2022/02/13 10:09:13;;;;;;;6.18;2.53;;;5.50;96.50;;;;;;5062259;28;20032;-61
2022/02/13 10:12:02;;;;;;;7.43;2.67;;;5.50;95.40;;;;;;5065891;28;20032;-62
2022/02/13 10:14:48;;;;;;;8.35;2.45;;;5.60;95.70;;;;;;5071754;28;20040;-62
2022/02/13 10:18:09;;;;;;;6.63;2.30;;;5.60;94.90;;;;;;5069768;28;20034;-61
2022/02/13 10:20:55;;;;;;;5.38;2.53;;;5.60;94.40;;;;;;5069296;28;20043;-64
2022/02/13 10:23:41;;;;;;;9.73;3.10;;;5.70;94.80;;;;;;5072761;28;20028;-62
2022/02/13 10:26:27;;;;;;;5.20;1.87;;;5.80;95.20;;;;;;5063391;28;20043;-62
2022/02/13 10:29:13;;;;;;;4.27;1.90;;;5.80;96.20;;;;;;5053364;28;20090;-64
2022/02/13 10:32:28;;;;;;;6.50;2.73;;;5.90;95.90;;;;;;5049410;28;20032;-63
2022/02/13 10:35:15;;;;;;;10.73;3.20;;;5.90;94.50;;;;;;5063182;28;20033;-64
2022/02/13 10:38:01;;;;;;;5.47;2.40;;;5.80;95.70;;;;;;5063570;28;20055;-61
2022/02/13 10:40:47;;;;;;;9.30;2.63;;;5.80;95.20;;;;;;5042530;28;20601;-63
2022/02/13 10:43:58;;;;;;;7.03;2.60;;;5.80;95.30;;;;;;5045224;28;20345;-63
2022/02/13 10:46:44;;;;;;;6.93;2.90;;;5.80;95.60;;;;;;5056756;28;20447;-63
2022/02/13 10:49:32;;;;;;;19.17;4.07;;;5.80;95.60;;;;;;5061727;28;20055;-63
2022/02/13 10:52:19;;;;;;;9.35;2.63;;;5.80;96.50;;;;;;5038264;28;20495;-64
2022/02/13 10:55:05;;;;;;;4.85;2.10;;;5.80;96.50;;;;;;5052143;28;20025;-65
2022/02/13 10:57:51;;;;;;;5.57;2.40;;;5.80;96.20;;;;;;5062137;28;20052;-62
2022/02/13 11:00:39;;;;;;;3.93;2.63;;;5.80;95.70;;;;;;5041082;28;20068;-62
2022/02/13 11:03:25;;;;;;;10.50;2.60;;;5.70;95.80;;;;;;5030309;28;20033;-64
2022/02/13 11:06:11;;;;;;;10.65;2.85;;;5.80;96.00;;;;;;5034609;28;20392;-63
2022/02/13 11:09:09;;;;;;;5.47;2.67;;;5.90;95.50;;;;;;5038079;28;20028;-65
2022/02/13 11:11:57;;;;;;;4.97;2.65;;;5.90;95.20;;;;;;5029629;28;20037;-59
2022/02/13 11:14:47;;;;;;;7.03;2.15;;;5.90;95.70;;;;;;5038590;28;20649;-62
2022/02/13 11:17:37;;;;;;;4.18;2.42;;;6.00;95.90;;;;;;5029600;28;20091;-62
2022/02/13 11:20:23;;;;;;;6.80;2.78;;;6.00;94.90;;;;;;5029406;28;20044;-62
2022/02/13 11:23:31;;;;;;;7.57;2.67;;;6.00;95.00;;;;;;5044313;28;20101;-62
2022/02/13 11:26:43;;;;;;;4.80;2.60;;;6.10;95.70;;;;;;5035668;28;20040;-62
2022/02/13 11:29:50;;;;;;;9.95;3.28;;;6.10;95.80;;;;;;5044461;28;20118;-62
2022/02/13 11:32:42;;;;;;;19.83;2.80;;;6.20;96.10;;;;;;5083088;28;20109;-62
2022/02/13 11:35:52;;;;;;;6.80;2.58;;;6.20;95.70;;;;;;5082133;28;20029;-63
2022/02/13 11:38:46;;;;;;;8.70;2.45;;;6.30;94.70;;;;;;5076118;28;20040;-63
2022/02/13 11:41:51;;;;;;;5.05;2.17;;;6.30;95.40;;;;;;5077126;28;20027;-63
2022/02/13 11:44:45;;;;;;;8.95;2.33;;;6.30;94.30;;;;;;5087718;28;20039;-62
2022/02/13 11:47:40;;;;;;;5.57;2.78;;;6.40;94.30;;;;;;5081378;28;20396;-62
2022/02/13 11:50:26;;;;;;;7.15;3.20;;;6.40;94.80;;;;;;5085238;28;20369;-62
2022/02/13 11:53:24;;;;;;;4.75;2.22;;;6.40;94.50;;;;;;5074511;28;20031;-62
2022/02/13 11:56:26;;;;;;;7.20;2.20;;;6.40;94.20;;;;;;5073630;28;20032;-63
2022/02/13 11:59:12;;;;;;;5.88;2.17;;;6.50;93.00;;;;;;5087971;28;20542;-62
2022/02/13 12:01:58;;;;;;;7.50;2.40;;;6.50;94.00;;;;;;5079667;28;20063;-62
2022/02/13 12:05:05;;;;;;;6.80;2.10;;;6.50;94.60;;;;;;5090653;28;20031;-62
2022/02/13 12:07:54;;;;;;;4.70;2.10;;;6.60;93.30;;;;;;5074205;28;20071;-61
2022/02/13 12:10:42;;;;;;;7.40;2.28;;;6.70;93.90;;;;;;5079946;28;20035;-62
2022/02/13 12:13:28;;;;;;;4.93;2.30;;;6.70;92.90;;;;;;5087122;28;20089;-63
2022/02/13 12:16:14;;;;;;;3.97;2.30;;;6.70;92.20;;;;;;5083020;28;20115;-62
2022/02/13 12:19:02;;;;;;;5.85;2.38;;;6.70;92.40;;;;;;5087597;28;20036;-63
2022/02/13 12:21:49;;;;;;;8.65;2.35;;;6.70;90.90;;;;;;5081556;28;20028;-62
2022/02/13 12:24:35;;;;;;;5.93;2.10;;;6.70;92.50;;;;;;5085101;28;20036;-62
2022/02/13 12:27:21;;;;;;;7.82;2.47;;;6.70;92.50;;;;;;5085006;28;20719;-62
2022/02/13 12:30:08;;;;;;;9.27;2.30;;;6.70;92.60;;;;;;5084132;28;20103;-62
2022/02/13 12:33:00;;;;;;;6.28;1.92;;;6.80;92.50;;;;;;5087099;28;20578;-62
2022/02/13 12:35:46;;;;;;;7.80;2.95;;;6.80;93.20;;;;;;5082573;28;20028;-62
2022/02/13 12:38:32;;;;;;;3.95;2.60;;;6.90;93.50;;;;;;5076263;28;20468;-62
2022/02/13 12:41:18;;;;;;;5.55;2.25;;;6.90;93.20;;;;;;5081860;28;20028;-60
2022/02/13 12:44:04;;;;;;;7.00;2.58;;;7.00;92.90;;;;;;5088867;28;20028;-62
2022/02/13 12:46:50;;;;;;;4.23;2.20;;;7.00;92.50;;;;;;5083521;28;20472;-62
2022/02/13 12:49:36;;;;;;;6.65;2.75;;;7.10;93.80;;;;;;5091154;28;20119;-62
2022/02/13 12:52:23;;;;;;;8.20;2.53;;;7.00;93.10;;;;;;5084788;28;20032;-63
2022/02/13 12:55:22;;;;;;;7.82;2.40;;;7.00;92.90;;;;;;5085958;28;20035;-63
2022/02/13 12:58:09;;;;;;;7.88;3.10;;;6.90;93.60;;;;;;5089368;28;20714;-63
2022/02/13 13:00:56;;;;;;;9.52;2.78;;;7.00;94.10;;;;;;5086944;28;20036;-61
2022/02/13 13:03:42;;;;;;;7.03;2.50;;;7.00;94.10;;;;;;5088285;28;20032;-62
2022/02/13 13:06:29;;;;;;;10.60;3.03;;;7.00;93.60;;;;;;5067043;28;20036;-63
2022/02/13 13:09:21;;;;;;;6.22;2.63;;;7.10;93.40;;;;;;5084626;28;20032;-63
2022/02/13 13:12:13;;;;;;;9.45;3.17;;;7.10;94.20;;;;;;5086967;28;20511;-60
2022/02/13 13:14:59;;;;;;;6.82;2.45;;;7.00;94.40;;;;;;5088314;28;20024;-62
2022/02/13 13:17:45;;;;;;;7.05;3.03;;;7.00;94.50;;;;;;5086527;28;20107;-62
2022/02/13 13:20:37;;;;;;;5.53;2.60;;;7.00;94.70;;;;;;5078848;28;20133;-62
2022/02/13 13:23:23;;;;;;;11.73;3.42;;;7.10;95.30;;;;;;5081432;28;20044;-63
2022/02/13 13:26:15;;;;;;;6.47;3.00;;;7.10;94.90;;;;;;5080887;28;20040;-64
2022/02/13 13:29:21;;;;;;;8.63;3.10;;;7.00;94.90;;;;;;5082903;28;20063;-62
2022/02/13 13:32:15;;;;;;;16.73;3.83;;;6.90;96.20;;;;;;5079362;28;20060;-61
2022/02/13 13:35:06;;;;;;;9.48;3.40;;;6.80;96.30;;;;;;5070332;28;20027;-63
2022/02/13 13:37:52;;;;;;;7.30;3.33;;;6.80;97.00;;;;;;5081529;28;20112;-62
2022/02/13 13:40:41;;;;;;;9.57;3.92;;;6.80;97.90;;;;;;5066480;28;20036;-61
2022/02/13 13:43:27;;;;;;;9.60;3.88;;;6.80;98.50;;;;;;5080617;28;20778;-63
2022/02/13 13:46:14;;;;;;;11.55;5.03;;;6.80;98.80;;;;;;5071531;28;20090;-61
2022/02/13 13:49:01;;;;;;;11.30;4.28;;;6.70;98.60;;;;;;5086867;28;20035;-62
2022/02/13 13:51:47;;;;;;;12.18;3.80;;;6.70;99.20;;;;;;5083796;28;20032;-62
2022/02/13 13:54:34;;;;;;;8.10;3.87;;;6.70;99.00;;;;;;5088084;28;20188;-62
2022/02/13 13:57:20;;;;;;;14.77;5.43;;;6.80;99.90;;;;;;5082878;28;20032;-62
2022/02/13 14:00:08;;;;;;;8.03;4.30;;;6.80;99.90;;;;;;5084155;28;20036;-62
2022/02/13 14:02:57;;;;;;;14.82;5.20;;;6.80;99.90;;;;;;5084778;28;20036;-62
2022/02/13 14:05:43;;;;;;;8.85;4.43;;;6.70;99.90;;;;;;5084505;28;20098;-59
2022/02/13 14:08:29;;;;;;;13.83;4.50;;;6.70;99.90;;;;;;5072970;28;20084;-62
2022/02/13 14:11:15;;;;;;;10.52;5.00;;;6.60;99.90;;;;;;5078975;28;20028;-62
2022/02/13 14:14:01;;;;;;;13.77;5.03;;;6.60;99.90;;;;;;5088030;28;20024;-61
2022/02/13 14:16:47;;;;;;;11.40;4.90;;;6.50;99.90;;;;;;5078400;28;20043;-62
2022/02/13 14:19:34;;;;;;;8.80;4.50;;;6.50;99.90;;;;;;5089087;28;20469;-63
2022/02/13 14:22:20;;;;;;;9.80;4.00;;;6.50;99.90;;;;;;5081189;28;20028;-63
2022/02/13 14:25:07;;;;;;;13.67;4.53;;;6.50;99.90;;;;;;5066666;28;20068;-62
2022/02/13 14:27:52;;;;;;;13.60;5.10;;;6.50;99.90;;;;;;5078146;28;20488;-61